sensor_id;sensor_type;location;lat;lon;timestamp;pressure;altitude;pressure_sealevel;temperature;humidity
13241;BME280;6687;47.790;7.322;2022-12-19T06:12:18;99779.00;;;1.44;100.00
13241;BME280;6687;47.790;7.322;2022-12-19T06:14:45;99785.94;;;1.47;100.00
13241;BME280;6687;47.790;7.322;2022-12-19T06:17:12;99793.59;;;1.47;100.00
13241;BME280;6687;47.790;7.322;2022-12-19T06:19:38;99786.91;;;1.49;100.00
13241;BME280;6687;47.790;7.322;2022-12-19T06:22:05;99792.91;;;1.49;99.73
13241;BME280;6687;47.790;7.322;2022-12-19T06:24:32;99794.88;;;1.55;99.37
13241;BME280;6687;47.790;7.322;2022-12-19T06:26:59;99793.03;;;1.52;99.12
13241;BME280;6687;47.790;7.322;2022-12-19T06:29:27;99784.50;;;1.52;98.66
13241;BME280;6687;47.790;7.322;2022-12-19T06:31:54;99779.50;;;1.53;98.28
13241;BME280;6687;47.790;7.322;2022-12-19T06:34:21;99776.13;;;1.54;98.04
13241;BME280;6687;47.790;7.322;2022-12-19T06:36:48;99777.88;;;1.55;97.79
13241;BME280;6687;47.790;7.322;2022-12-19T06:39:14;99772.06;;;1.58;97.07
13241;BME280;6687;47.790;7.322;2022-12-19T06:41:41;99770.44;;;1.60;96.62
13241;BME280;6687;47.790;7.322;2022-12-19T06:44:27;99777.69;;;1.69;96.06
13241;BME280;6687;47.790;7.322;2022-12-19T06:46:54;99771.50;;;1.64;95.89
13241;BME280;6687;47.790;7.322;2022-12-19T06:49:20;99774.13;;;1.65;95.64
13241;BME280;6687;47.790;7.322;2022-12-19T06:51:47;99782.75;;;1.67;95.25
13241;BME280;6687;47.790;7.322;2022-12-19T06:54:14;99779.38;;;1.68;95.11
13241;BME280;6687;47.790;7.322;2022-12-19T06:56:42;99780.09;;;1.66;95.09
13241;BME280;6687;47.790;7.322;2022-12-19T06:59:11;99768.28;;;1.68;94.84
13241;BME280;6687;47.790;7.322;2022-12-19T07:01:49;99774.25;;;1.68;95.04
13241;BME280;6687;47.790;7.322;2022-12-19T07:04:20;99777.63;;;1.67;95.00
13241;BME280;6687;47.790;7.322;2022-12-19T07:06:49;99781.94;;;1.68;95.10
13241;BME280;6687;47.790;7.322;2022-12-19T07:09:16;99792.97;;;1.67;95.09
13241;BME280;6687;47.790;7.322;2022-12-19T07:11:43;99788.00;;;1.70;94.95
13241;BME280;6687;47.790;7.322;2022-12-19T07:14:10;99803.31;;;1.70;94.79
13241;BME280;6687;47.790;7.322;2022-12-19T07:16:36;99788.84;;;1.71;94.73
13241;BME280;6687;47.790;7.322;2022-12-19T07:19:06;99797.47;;;1.73;94.66
13241;BME280;6687;47.790;7.322;2022-12-19T07:21:33;99785.53;;;1.72;94.51
13241;BME280;6687;47.790;7.322;2022-12-19T07:24:00;99791.50;;;1.72;94.68
13241;BME280;6687;47.790;7.322;2022-12-19T07:26:28;99790.72;;;1.73;94.57
13241;BME280;6687;47.790;7.322;2022-12-19T07:28:54;99795.00;;;1.74;94.55
13241;BME280;6687;47.790;7.322;2022-12-19T07:31:22;99804.28;;;1.72;94.58
13241;BME280;6687;47.790;7.322;2022-12-19T07:33:48;99801.88;;;1.75;94.48
13241;BME280;6687;47.790;7.322;2022-12-19T07:36:17;99795.00;;;1.74;94.13
13241;BME280;6687;47.790;7.322;2022-12-19T07:38:43;99801.94;;;1.77;94.14
13241;BME280;6687;47.790;7.322;2022-12-19T07:41:10;99808.81;;;1.78;94.03
13241;BME280;6687;47.790;7.322;2022-12-19T07:43:37;99801.16;;;1.78;93.96
13241;BME280;6687;47.790;7.322;2022-12-19T07:46:04;99800.28;;;1.77;94.03
13241;BME280;6687;47.790;7.322;2022-12-19T07:48:31;99802.03;;;1.78;93.95
13241;BME280;6687;47.790;7.322;2022-12-19T07:50:58;99803.78;;;1.79;93.72
13241;BME280;6687;47.790;7.322;2022-12-19T07:53:26;99798.69;;;1.79;93.73
13241;BME280;6687;47.790;7.322;2022-12-19T07:55:53;99805.53;;;1.81;93.73
13241;BME280;6687;47.790;7.322;2022-12-19T07:58:20;99806.44;;;1.81;93.61
13241;BME280;6687;47.790;7.322;2022-12-19T08:00:53;99807.31;;;1.82;93.52
13241;BME280;6687;47.790;7.322;2022-12-19T08:03:20;99805.69;;;1.84;93.45
13241;BME280;6687;47.790;7.322;2022-12-19T08:05:46;99809.00;;;1.81;93.35
13241;BME280;6687;47.790;7.322;2022-12-19T08:08:13;99810.81;;;1.84;93.38
13241;BME280;6687;47.790;7.322;2022-12-19T08:10:41;99811.69;;;1.84;93.39
13241;BME280;6687;47.790;7.322;2022-12-19T08:13:08;99817.66;;;1.85;93.34
13241;BME280;6687;47.790;7.322;2022-12-19T08:15:35;99813.38;;;1.84;93.40
13241;BME280;6687;47.790;7.322;2022-12-19T08:18:02;99825.31;;;1.85;93.30
13241;BME280;6687;47.790;7.322;2022-12-19T08:20:28;99820.28;;;1.86;93.30
13241;BME280;6687;47.790;7.322;2022-12-19T08:22:55;99818.56;;;1.85;93.30
13241;BME280;6687;47.790;7.322;2022-12-19T08:25:22;99815.09;;;1.85;93.32
13241;BME280;6687;47.790;7.322;2022-12-19T08:27:50;99829.66;;;1.86;93.29
13241;BME280;6687;47.790;7.322;2022-12-19T08:30:17;99819.44;;;1.86;93.56
13241;BME280;6687;47.790;7.322;2022-12-19T08:32:44;99832.13;;;1.84;93.72
13241;BME280;6687;47.790;7.322;2022-12-19T08:35:11;99821.03;;;1.84;93.87
13241;BME280;6687;47.790;7.322;2022-12-19T08:37:38;99816.78;;;1.84;93.81
13241;BME280;6687;47.790;7.322;2022-12-19T08:40:06;99809.22;;;1.86;93.79
13241;BME280;6687;47.790;7.322;2022-12-19T08:42:33;99822.75;;;1.85;93.66
13241;BME280;6687;47.790;7.322;2022-12-19T08:45:01;99833.88;;;1.85;93.77
13241;BME280;6687;47.790;7.322;2022-12-19T08:47:28;99834.75;;;1.86;93.62
13241;BME280;6687;47.790;7.322;2022-12-19T08:49:54;99834.75;;;1.86;93.82
13241;BME280;6687;47.790;7.322;2022-12-19T08:52:22;99827.88;;;1.85;93.90
13241;BME280;6687;47.790;7.322;2022-12-19T08:54:49;99837.97;;;1.82;94.04
13241;BME280;6687;47.790;7.322;2022-12-19T08:57:15;99847.44;;;1.84;94.12
13241;BME280;6687;47.790;7.322;2022-12-19T08:59:42;99840.66;;;1.85;94.13
13241;BME280;6687;47.790;7.322;2022-12-19T09:02:10;99836.34;;;1.84;94.30
13241;BME280;6687;47.790;7.322;2022-12-19T09:04:37;99836.34;;;1.84;94.12
13241;BME280;6687;47.790;7.322;2022-12-19T09:07:04;99842.34;;;1.84;94.18
13241;BME280;6687;47.790;7.322;2022-12-19T09:09:30;99839.78;;;1.84;94.29
13241;BME280;6687;47.790;7.322;2022-12-19T09:11:57;99843.22;;;1.85;94.30
13241;BME280;6687;47.790;7.322;2022-12-19T09:14:24;99833.81;;;1.84;94.27
13241;BME280;6687;47.790;7.322;2022-12-19T09:16:51;99826.13;;;1.84;94.19
13241;BME280;6687;47.790;7.322;2022-12-19T09:19:19;99831.25;;;1.84;94.32
13241;BME280;6687;47.790;7.322;2022-12-19T09:21:46;99833.53;;;1.79;94.63
13241;BME280;6687;47.790;7.322;2022-12-19T09:24:12;99826.91;;;1.83;94.72
13241;BME280;6687;47.790;7.322;2022-12-19T09:26:39;99829.47;;;1.83;94.75
13241;BME280;6687;47.790;7.322;2022-12-19T09:29:07;99826.13;;;1.84;94.88
13241;BME280;6687;47.790;7.322;2022-12-19T09:31:34;99823.59;;;1.84;94.67
13241;BME280;6687;47.790;7.322;2022-12-19T09:34:01;99824.38;;;1.83;94.58
13241;BME280;6687;47.790;7.322;2022-12-19T09:36:30;99820.94;;;1.82;94.71
13241;BME280;6687;47.790;7.322;2022-12-19T09:38:57;99825.28;;;1.83;94.82
13241;BME280;6687;47.790;7.322;2022-12-19T09:41:43;99819.25;;;1.83;94.97
13241;BME280;6687;47.790;7.322;2022-12-19T09:44:26;99823.50;;;1.82;95.06
13241;BME280;6687;47.790;7.322;2022-12-19T09:46:59;99814.16;;;1.83;95.12
13241;BME280;6687;47.790;7.322;2022-12-19T09:49:28;99817.59;;;1.83;94.88
13241;BME280;6687;47.790;7.322;2022-12-19T09:52:03;99820.16;;;1.83;95.11
13241;BME280;6687;47.790;7.322;2022-12-19T09:54:35;99824.31;;;1.81;95.12
13241;BME280;6687;47.790;7.322;2022-12-19T09:57:05;99821.75;;;1.81;95.45
13241;BME280;6687;47.790;7.322;2022-12-19T09:59:39;99826.13;;;1.84;95.18
13241;BME280;6687;47.790;7.322;2022-12-19T10:02:23;99818.56;;;1.85;95.07
13241;BME280;6687;47.790;7.322;2022-12-19T10:04:56;99826.13;;;1.84;95.14
13241;BME280;6687;47.790;7.322;2022-12-19T10:07:29;99820.06;;;1.82;95.35
13241;BME280;6687;47.790;7.322;2022-12-19T10:09:56;99821.81;;;1.83;95.50
13241;BME280;6687;47.790;7.322;2022-12-19T10:12:38;99811.69;;;1.84;95.39
13241;BME280;6687;47.790;7.322;2022-12-19T10:15:12;99798.97;;;1.86;95.20
13241;BME280;6687;47.790;7.322;2022-12-19T10:17:56;99806.75;;;1.87;95.21
13241;BME280;6687;47.790;7.322;2022-12-19T10:20:28;99800.72;;;1.87;95.06
13241;BME280;6687;47.790;7.322;2022-12-19T10:23:06;99797.38;;;1.88;95.23
13241;BME280;6687;47.790;7.322;2022-12-19T10:25:50;99798.16;;;1.87;95.16
13241;BME280;6687;47.790;7.322;2022-12-19T10:28:31;99794.75;;;1.86;95.19
13241;BME280;6687;47.790;7.322;2022-12-19T10:31:09;99801.63;;;1.87;95.42
13241;BME280;6687;47.790;7.322;2022-12-19T10:33:44;99803.22;;;1.85;95.38
13241;BME280;6687;47.790;7.322;2022-12-19T10:36:12;99792.09;;;1.85;95.54
13241;BME280;6687;47.790;7.322;2022-12-19T10:38:46;99793.88;;;1.86;95.75
13241;BME280;6687;47.790;7.322;2022-12-19T10:41:19;99792.09;;;1.85;95.82
13241;BME280;6687;47.790;7.322;2022-12-19T10:43:54;99781.97;;;1.86;95.73
13241;BME280;6687;47.790;7.322;2022-12-19T10:46:32;99783.75;;;1.87;95.52
13241;BME280;6687;47.790;7.322;2022-12-19T10:49:09;99778.63;;;1.87;95.57
13241;BME280;6687;47.790;7.322;2022-12-19T10:51:36;99783.66;;;1.86;95.87
13241;BME280;6687;47.790;7.322;2022-12-19T10:54:04;99776.00;;;1.86;95.92
13241;BME280;6687;47.790;7.322;2022-12-19T10:56:32;99781.09;;;1.86;95.88
13241;BME280;6687;47.790;7.322;2022-12-19T10:58:59;99772.63;;;1.87;95.95
13241;BME280;6687;47.790;7.322;2022-12-19T11:01:27;99760.75;;;1.87;95.82
13241;BME280;6687;47.790;7.322;2022-12-19T11:04:21;99752.19;;;1.87;95.90
13241;BME280;6687;47.790;7.322;2022-12-19T11:07:03;99753.00;;;1.86;96.24
13241;BME280;6687;47.790;7.322;2022-12-19T11:09:36;99750.56;;;1.89;95.90
13241;BME280;6687;47.790;7.322;2022-12-19T11:12:10;99752.19;;;1.87;96.00
13241;BME280;6687;47.790;7.322;2022-12-19T11:14:39;99747.03;;;1.85;96.23
13241;BME280;6687;47.790;7.322;2022-12-19T11:17:22;99741.25;;;1.89;96.05
13241;BME280;6687;47.790;7.322;2022-12-19T11:19:49;99742.91;;;1.89;96.06
13241;BME280;6687;47.790;7.322;2022-12-19T11:22:20;99732.63;;;1.87;96.32
13241;BME280;6687;47.790;7.322;2022-12-19T11:24:52;99730.94;;;1.88;96.21
13241;BME280;6687;47.790;7.322;2022-12-19T11:27:37;99737.81;;;1.89;96.31
13241;BME280;6687;47.790;7.322;2022-12-19T11:30:08;99741.91;;;1.85;96.59
13241;BME280;6687;47.790;7.322;2022-12-19T11:32:45;99731.91;;;1.90;96.25
13241;BME280;6687;47.790;7.322;2022-12-19T11:35:19;99728.47;;;1.89;96.26
13241;BME280;6687;47.790;7.322;2022-12-19T11:37:50;99724.81;;;1.84;96.67
13241;BME280;6687;47.790;7.322;2022-12-19T11:40:27;99724.06;;;1.87;96.75
13241;BME280;6687;47.790;7.322;2022-12-19T11:42:58;99720.88;;;1.91;96.72
13241;BME280;6687;47.790;7.322;2022-12-19T11:45:33;99716.50;;;1.88;96.79
13241;BME280;6687;47.790;7.322;2022-12-19T11:48:12;99723.38;;;1.89;96.84
13241;BME280;6687;47.790;7.322;2022-12-19T11:50:53;99709.03;;;1.93;96.55
13241;BME280;6687;47.790;7.322;2022-12-19T11:53:26;99700.59;;;1.94;96.39
13241;BME280;6687;47.790;7.322;2022-12-19T11:55:58;99689.50;;;1.93;96.42
13241;BME280;6687;47.790;7.322;2022-12-19T11:58:27;99689.50;;;1.93;96.45
13241;BME280;6687;47.790;7.322;2022-12-19T12:01:00;99694.66;;;1.95;96.40
13241;BME280;6687;47.790;7.322;2022-12-19T12:03:43;99677.66;;;1.95;96.25
13241;BME280;6687;47.790;7.322;2022-12-19T12:06:18;99685.41;;;1.97;96.13
13241;BME280;6687;47.790;7.322;2022-12-19T12:08:57;99680.34;;;1.98;96.19
13241;BME280;6687;47.790;7.322;2022-12-19T12:11:36;99679.56;;;1.99;95.98
13241;BME280;6687;47.790;7.322;2022-12-19T12:14:15;99682.19;;;2.01;95.97
13241;BME280;6687;47.790;7.322;2022-12-19T12:16:56;99670.38;;;2.03;95.84
13241;BME280;6687;47.790;7.322;2022-12-19T12:19:41;99675.47;;;2.03;95.75
13241;BME280;6687;47.790;7.322;2022-12-19T12:22:19;99667.00;;;2.04;95.84
13241;BME280;6687;47.790;7.322;2022-12-19T12:24:55;99674.00;;;2.08;95.86
13241;BME280;6687;47.790;7.322;2022-12-19T12:27:39;99668.88;;;2.08;95.96
13241;BME280;6687;47.790;7.322;2022-12-19T12:30:09;99667.28;;;2.10;95.93
13241;BME280;6687;47.790;7.322;2022-12-19T12:32:50;99667.44;;;2.13;96.29
13241;BME280;6687;47.790;7.322;2022-12-19T12:35:32;99662.44;;;2.16;96.25
13241;BME280;6687;47.790;7.322;2022-12-19T12:38:21;99664.97;;;2.15;96.12
13241;BME280;6687;47.790;7.322;2022-12-19T12:41:08;99665.94;;;2.18;95.92
13241;BME280;6687;47.790;7.322;2022-12-19T12:44:01;99666.03;;;2.20;95.90
13241;BME280;6687;47.790;7.322;2022-12-19T12:46:35;99660.84;;;2.18;95.99
13241;BME280;6687;47.790;7.322;2022-12-19T12:49:04;99662.59;;;2.19;96.26
13241;BME280;6687;47.790;7.322;2022-12-19T12:51:32;99662.72;;;2.23;96.27
13241;BME280;6687;47.790;7.322;2022-12-19T12:54:04;99653.41;;;2.23;96.10
13241;BME280;6687;47.790;7.322;2022-12-19T12:56:34;99653.53;;;2.26;96.89
13241;BME280;6687;47.790;7.322;2022-12-19T12:59:19;99655.34;;;2.29;96.33
13241;BME280;6687;47.790;7.322;2022-12-19T13:01:50;99658.72;;;2.28;96.58
13241;BME280;6687;47.790;7.322;2022-12-19T13:04:23;99656.16;;;2.28;96.27
13241;BME280;6687;47.790;7.322;2022-12-19T13:07:20;99649.28;;;2.27;96.61
13241;BME280;6687;47.790;7.322;2022-12-19T13:10:04;99643.72;;;2.35;97.05
13241;BME280;6687;47.790;7.322;2022-12-19T13:12:31;99638.75;;;2.38;97.75
13241;BME280;6687;47.790;7.322;2022-12-19T13:15:35;99641.09;;;2.34;97.00
13241;BME280;6687;47.790;7.322;2022-12-19T13:21:02;99644.88;;;2.42;96.98
13241;BME280;6687;47.790;7.322;2022-12-19T13:23:41;99650.00;;;2.42;97.54
13241;BME280;6687;47.790;7.322;2022-12-19T13:26:42;99646.50;;;2.40;97.13
13241;BME280;6687;47.790;7.322;2022-12-19T13:32:24;99653.84;;;2.52;98.09
13241;BME280;6687;47.790;7.322;2022-12-19T13:34:53;99652.03;;;2.49;97.85
13241;BME280;6687;47.790;7.322;2022-12-19T13:37:29;99647.97;;;2.54;98.13
13241;BME280;6687;47.790;7.322;2022-12-19T13:40:05;99648.31;;;2.62;99.07
13241;BME280;6687;47.790;7.322;2022-12-19T13:42:36;99641.47;;;2.61;98.98
13241;BME280;6687;47.790;7.322;2022-12-19T13:45:23;99643.47;;;2.68;99.04
13241;BME280;6687;47.790;7.322;2022-12-19T13:47:54;99640.81;;;2.65;98.64
13241;BME280;6687;47.790;7.322;2022-12-19T13:50:26;99649.06;;;2.59;97.63
13241;BME280;6687;47.790;7.322;2022-12-19T13:52:53;99655.28;;;2.65;98.23
13241;BME280;6687;47.790;7.322;2022-12-19T13:55:20;99662.13;;;2.66;97.92
13241;BME280;6687;47.790;7.322;2022-12-19T13:57:48;99673.19;;;2.65;98.12
13241;BME280;6687;47.790;7.322;2022-12-19T14:00:20;99657.16;;;2.69;98.59
13241;BME280;6687;47.790;7.322;2022-12-19T14:02:49;99658.13;;;2.71;98.26
13241;BME280;6687;47.790;7.322;2022-12-19T14:05:24;99657.16;;;2.69;98.44
13241;BME280;6687;47.790;7.322;2022-12-19T14:07:52;99658.38;;;2.77;99.56
13241;BME280;6687;47.790;7.322;2022-12-19T14:10:23;99657.72;;;2.81;99.62
13241;BME280;6687;47.790;7.322;2022-12-19T14:12:51;99663.50;;;2.77;99.15
13241;BME280;6687;47.790;7.322;2022-12-19T14:15:37;99660.13;;;2.78;98.29
13241;BME280;6687;47.790;7.322;2022-12-19T14:18:17;99671.28;;;2.80;98.97
13241;BME280;6687;47.790;7.322;2022-12-19T14:20:46;99663.75;;;2.83;98.98
13241;BME280;6687;47.790;7.322;2022-12-19T14:23:13;99650.97;;;2.83;98.47
13241;BME280;6687;47.790;7.322;2022-12-19T14:25:44;99651.91;;;2.85;99.40
13241;BME280;6687;47.790;7.322;2022-12-19T14:28:13;99656.75;;;2.79;98.33
13241;BME280;6687;47.790;7.322;2022-12-19T14:30:44;99646.66;;;2.82;99.05
13241;BME280;6687;47.790;7.322;2022-12-19T14:33:16;99654.31;;;2.82;98.54
13241;BME280;6687;47.790;7.322;2022-12-19T14:35:46;99647.41;;;2.79;99.54
13241;BME280;6687;47.790;7.322;2022-12-19T14:38:16;99650.28;;;2.87;99.24
13241;BME280;6687;47.790;7.322;2022-12-19T14:40:44;99656.09;;;2.83;98.89
13241;BME280;6687;47.790;7.322;2022-12-19T14:43:15;99641.41;;;2.79;98.67
13241;BME280;6687;47.790;7.322;2022-12-19T14:46:12;99644.25;;;2.85;99.64
13241;BME280;6687;47.790;7.322;2022-12-19T14:48:46;99653.66;;;2.86;100.00
13241;BME280;6687;47.790;7.322;2022-12-19T14:51:23;99653.13;;;2.74;98.91
13241;BME280;6687;47.790;7.322;2022-12-19T14:54:13;99647.72;;;2.68;98.79
13241;BME280;6687;47.790;7.322;2022-12-19T14:56:43;99648.56;;;2.67;98.88
13241;BME280;6687;47.790;7.322;2022-12-19T14:59:31;99644.81;;;2.60;98.67
13241;BME280;6687;47.790;7.322;2022-12-19T15:02:13;99641.59;;;2.64;99.10
13241;BME280;6687;47.790;7.322;2022-12-19T15:04:43;99650.16;;;2.45;99.89
13241;BME280;6687;47.790;7.322;2022-12-19T15:07:16;99642.06;;;2.55;99.60
13241;BME280;6687;47.790;7.322;2022-12-19T15:09:51;99648.81;;;2.53;99.41
13241;BME280;6687;47.790;7.322;2022-12-19T15:12:27;99652.81;;;2.48;99.64
13241;BME280;6687;47.790;7.322;2022-12-19T15:15:18;99648.25;;;2.41;100.00
13241;BME280;6687;47.790;7.322;2022-12-19T15:17:47;99659.47;;;2.45;100.00
13241;BME280;6687;47.790;7.322;2022-12-19T15:20:14;99644.59;;;2.36;100.00
13241;BME280;6687;47.790;7.322;2022-12-19T15:22:42;99646.56;;;2.42;100.00
13241;BME280;6687;47.790;7.322;2022-12-19T15:25:12;99647.50;;;2.44;100.00
13241;BME280;6687;47.790;7.322;2022-12-19T15:27:41;99638.66;;;2.55;100.00
13241;BME280;6687;47.790;7.322;2022-12-19T15:30:14;99647.50;;;2.44;100.00
13241;BME280;6687;47.790;7.322;2022-12-19T15:32:42;99646.16;;;2.52;100.00
13241;BME280;6687;47.790;7.322;2022-12-19T15:35:11;99649.41;;;2.48;100.00
13241;BME280;6687;47.790;7.322;2022-12-19T15:37:38;99648.81;;;2.53;100.00
13241;BME280;6687;47.790;7.322;2022-12-19T15:40:12;99640.31;;;2.54;100.00
13241;BME280;6687;47.790;7.322;2022-12-19T15:42:40;99638.41;;;2.50;100.00
13241;BME280;6687;47.790;7.322;2022-12-19T15:45:12;99636.53;;;2.46;99.99
13241;BME280;6687;47.790;7.322;2022-12-19T15:47:39;99641.09;;;2.34;100.00
13241;BME280;6687;47.790;7.322;2022-12-19T15:50:16;99642.19;;;2.39;100.00
13241;BME280;6687;47.790;7.322;2022-12-19T15:52:43;99630.69;;;2.49;100.00
13241;BME280;6687;47.790;7.322;2022-12-19T15:55:13;99634.38;;;2.36;100.00
13241;BME280;6687;47.790;7.322;2022-12-19T15:57:42;99637.88;;;2.38;100.00
13241;BME280;6687;47.790;7.322;2022-12-19T16:00:15;99642.47;;;2.45;100.00
13241;BME280;6687;47.790;7.322;2022-12-19T16:02:43;99639.84;;;2.44;100.00
13241;BME280;6687;47.790;7.322;2022-12-19T16:05:10;99643.38;;;2.28;100.00
13241;BME280;6687;47.790;7.322;2022-12-19T16:07:37;99639.00;;;2.45;100.00
13241;BME280;6687;47.790;7.322;2022-12-19T16:10:05;99640.97;;;2.31;100.00
13241;BME280;6687;47.790;7.322;2022-12-19T16:12:35;99640.63;;;2.43;100.00
13241;BME280;6687;47.790;7.322;2022-12-19T16:15:04;99642.56;;;2.29;100.00
13241;BME280;6687;47.790;7.322;2022-12-19T16:17:31;99645.69;;;2.41;100.00
13241;BME280;6687;47.790;7.322;2022-12-19T16:19:58;99638.97;;;2.43;100.00
13241;BME280;6687;47.790;7.322;2022-12-19T16:22:27;99639.00;;;2.45;100.00
13241;BME280;6687;47.790;7.322;2022-12-19T16:24:54;99640.31;;;2.54;100.00
13241;BME280;6687;47.790;7.322;2022-12-19T16:27:23;99636.81;;;2.52;100.00
13241;BME280;6687;47.790;7.322;2022-12-19T16:29:53;99634.81;;;2.45;100.00
13241;BME280;6687;47.790;7.322;2022-12-19T16:32:21;99632.31;;;2.47;100.00
13241;BME280;6687;47.790;7.322;2022-12-19T16:34:49;99639.50;;;2.36;100.00
13241;BME280;6687;47.790;7.322;2022-12-19T16:37:16;99642.56;;;2.29;100.00
13241;BME280;6687;47.790;7.322;2022-12-19T16:39:42;99652.94;;;2.32;100.00
13241;BME280;6687;47.790;7.322;2022-12-19T16:42:13;99652.53;;;2.42;100.00
13241;BME280;6687;47.790;7.322;2022-12-19T16:44:41;99630.81;;;2.52;100.00
13241;BME280;6687;47.790;7.322;2022-12-19T16:47:12;99642.66;;;2.50;100.00
13241;BME280;6687;47.790;7.322;2022-12-19T16:49:40;99647.09;;;2.34;100.00
13241;BME280;6687;47.790;7.322;2022-12-19T16:52:06;99654.03;;;2.37;100.00
13241;BME280;6687;47.790;7.322;2022-12-19T16:54:33;99651.00;;;2.46;100.00
13241;BME280;6687;47.790;7.322;2022-12-19T16:57:01;99651.09;;;2.47;100.00
13241;BME280;6687;47.790;7.322;2022-12-19T16:59:33;99644.91;;;2.62;100.00
13241;BME280;6687;47.790;7.322;2022-12-19T17:02:01;99645.44;;;2.54;100.00
13241;BME280;6687;47.790;7.322;2022-12-19T17:04:36;99645.31;;;2.51;100.00
13241;BME280;6687;47.790;7.322;2022-12-19T17:07:04;99646.09;;;2.50;100.00
13241;BME280;6687;47.790;7.322;2022-12-19T17:09:35;99642.59;;;2.48;100.00
13241;BME280;6687;47.790;7.322;2022-12-19T17:12:02;99647.03;;;2.52;100.00
13241;BME280;6687;47.790;7.322;2022-12-19T17:14:30;99655.81;;;2.57;100.00
13241;BME280;6687;47.790;7.322;2022-12-19T17:16:58;99652.84;;;2.68;100.00
13241;BME280;6687;47.790;7.322;2022-12-19T17:19:28;99652.84;;;2.68;100.00
13241;BME280;6687;47.790;7.322;2022-12-19T17:21:59;99653.78;;;2.70;100.00
13241;BME280;6687;47.790;7.322;2022-12-19T17:24:26;99651.31;;;2.71;100.00
13241;BME280;6687;47.790;7.322;2022-12-19T17:26:52;99651.22;;;2.70;100.00
13241;BME280;6687;47.790;7.322;2022-12-19T17:29:19;99646.38;;;2.76;100.00
13241;BME280;6687;47.790;7.322;2022-12-19T17:31:46;99653.97;;;2.74;100.00
13241;BME280;6687;47.790;7.322;2022-12-19T17:34:16;99652.72;;;2.84;100.00
13241;BME280;6687;47.790;7.322;2022-12-19T17:36:45;99645.28;;;2.90;100.00
13241;BME280;6687;47.790;7.322;2022-12-19T17:39:21;99643.81;;;2.95;100.00
13241;BME280;6687;47.790;7.322;2022-12-19T17:41:48;99640.06;;;2.87;100.00
13241;BME280;6687;47.790;7.322;2022-12-19T17:44:16;99639.19;;;2.87;100.00
13241;BME280;6687;47.790;7.322;2022-12-19T17:46:43;99652.38;;;2.76;100.00
13241;BME280;6687;47.790;7.322;2022-12-19T17:49:15;99633.19;;;2.86;100.00
13241;BME280;6687;47.790;7.322;2022-12-19T17:51:45;99641.78;;;2.88;100.00
13241;BME280;6687;47.790;7.322;2022-12-19T17:54:12;99647.06;;;2.91;100.00
13241;BME280;6687;47.790;7.322;2022-12-19T17:56:40;99636.94;;;2.94;100.00
13241;BME280;6687;47.790;7.322;2022-12-19T17:59:07;99638.84;;;2.98;100.00
13241;BME280;6687;47.790;7.322;2022-12-19T18:01:34;99639.72;;;2.99;100.00
13241;BME280;6687;47.790;7.322;2022-12-19T18:04:01;99635.19;;;2.93;100.00
13241;BME280;6687;47.790;7.322;2022-12-19T18:06:28;99638.16;;;3.03;100.00
13241;BME280;6687;47.790;7.322;2022-12-19T18:08:54;99630.59;;;3.06;100.00
13241;BME280;6687;47.790;7.322;2022-12-19T18:11:23;99629.38;;;3.17;100.00
13241;BME280;6687;47.790;7.322;2022-12-19T18:13:52;99635.25;;;3.14;100.00
13241;BME280;6687;47.790;7.322;2022-12-19T18:16:21;99632.47;;;3.10;100.00
13241;BME280;6687;47.790;7.322;2022-12-19T18:18:49;99636.88;;;3.12;100.00
13241;BME280;6687;47.790;7.322;2022-12-19T18:21:17;99634.34;;;3.14;100.00
13241;BME280;6687;47.790;7.322;2022-12-19T18:23:45;99626.34;;;3.06;100.00
13241;BME280;6687;47.790;7.322;2022-12-19T18:26:12;99624.94;;;3.13;100.00
13241;BME280;6687;47.790;7.322;2022-12-19T18:28:39;99619.13;;;3.17;100.00
13241;BME280;6687;47.790;7.322;2022-12-19T18:31:12;99624.50;;;3.23;100.00
13241;BME280;6687;47.790;7.322;2022-12-19T18:33:41;99623.66;;;3.23;100.00
13241;BME280;6687;47.790;7.322;2022-12-19T18:36:22;99622.75;;;3.22;100.00
13241;BME280;6687;47.790;7.322;2022-12-19T18:38:50;99627.75;;;3.19;100.00
13241;BME280;6687;47.790;7.322;2022-12-19T18:41:18;99628.78;;;3.23;100.00
13241;BME280;6687;47.790;7.322;2022-12-19T18:43:45;99631.00;;;3.15;100.00
13241;BME280;6687;47.790;7.322;2022-12-19T18:46:15;99630.59;;;3.06;100.00
13241;BME280;6687;47.790;7.322;2022-12-19T18:48:43;99623.69;;;3.03;100.00
13241;BME280;6687;47.790;7.322;2022-12-19T18:51:13;99628.53;;;2.97;100.00
13241;BME280;6687;47.790;7.322;2022-12-19T18:53:41;99623.75;;;3.05;100.00
13241;BME280;6687;47.790;7.322;2022-12-19T18:56:08;99621.22;;;3.06;100.00
13241;BME280;6687;47.790;7.322;2022-12-19T18:58:35;99626.34;;;3.06;100.00
13241;BME280;6687;47.790;7.322;2022-12-19T19:01:04;99618.41;;;3.00;100.00
13241;BME280;6687;47.790;7.322;2022-12-19T19:03:34;99624.28;;;2.97;100.00
13241;BME280;6687;47.790;7.322;2022-12-19T19:06:01;99611.31;;;2.93;100.00
13241;BME280;6687;47.790;7.322;2022-12-19T19:08:32;99619.59;;;2.87;100.00
13241;BME280;6687;47.790;7.322;2022-12-19T19:10:59;99611.56;;;2.99;100.00
13241;BME280;6687;47.790;7.322;2022-12-19T19:13:26;99609.75;;;2.96;100.00
13241;BME280;6687;47.790;7.322;2022-12-19T19:15:56;99612.91;;;2.91;100.00
13241;BME280;6687;47.790;7.322;2022-12-19T19:18:25;99604.63;;;2.96;100.00
13241;BME280;6687;47.790;7.322;2022-12-19T19:20:55;99605.94;;;2.87;100.00
13241;BME280;6687;47.790;7.322;2022-12-19T19:23:24;99608.78;;;2.94;100.00
13241;BME280;6687;47.790;7.322;2022-12-19T19:25:52;99617.13;;;2.90;100.00
13241;BME280;6687;47.790;7.322;2022-12-19T19:28:19;99601.00;;;2.91;100.00
13241;BME280;6687;47.790;7.322;2022-12-19T19:30:46;99601.44;;;3.02;100.00
13241;BME280;6687;47.790;7.322;2022-12-19T19:33:15;99602.00;;;2.95;100.00
13241;BME280;6687;47.790;7.322;2022-12-19T19:35:43;99604.84;;;2.82;100.00
13241;BME280;6687;47.790;7.322;2022-12-19T19:38:14;99598.97;;;2.84;100.00
13241;BME280;6687;47.790;7.322;2022-12-19T19:40:41;99590.16;;;2.77;100.00
13241;BME280;6687;47.790;7.322;2022-12-19T19:43:08;99585.31;;;2.84;100.00
13241;BME280;6687;47.790;7.322;2022-12-19T19:45:35;99587.00;;;2.83;100.00
13241;BME280;6687;47.790;7.322;2022-12-19T19:48:02;99577.69;;;2.85;100.00
13241;BME280;6687;47.790;7.322;2022-12-19T19:50:30;99587.59;;;2.77;100.00
13241;BME280;6687;47.790;7.322;2022-12-19T19:52:57;99586.81;;;2.59;100.00
13241;BME280;6687;47.790;7.322;2022-12-19T19:55:26;99584.97;;;2.76;100.00